createdAt,value
2022-10-23T00:00:15.868Z,14.00
2022-10-23T00:02:42.650Z,13.70
2022-10-23T00:05:10.743Z,13.90
2022-10-23T00:07:37.431Z,14.10
2022-10-23T00:10:05.112Z,13.80
2022-10-23T00:12:31.874Z,14.00
2022-10-23T00:14:58.471Z,13.80
2022-10-23T00:17:25.797Z,13.60
2022-10-23T00:19:52.435Z,13.70
2022-10-23T00:22:19.037Z,13.70
2022-10-23T00:24:45.715Z,13.70
2022-10-23T00:27:12.296Z,14.10
2022-10-23T00:29:38.891Z,13.60
2022-10-23T00:32:05.450Z,13.50
2022-10-23T00:34:32.724Z,13.60
2022-10-23T00:36:59.379Z,13.60
2022-10-23T00:39:25.951Z,13.80
2022-10-23T00:41:52.793Z,13.60
2022-10-23T00:44:57.064Z,13.50
2022-10-23T00:47:23.652Z,13.60
2022-10-23T00:49:50.904Z,13.50
2022-10-23T00:52:17.480Z,13.60
2022-10-23T00:54:44.878Z,13.50
2022-10-23T00:57:14.567Z,13.50
2022-10-23T00:59:41.477Z,13.70
2022-10-23T01:02:08.772Z,13.60
2022-10-23T01:04:36.781Z,13.60
2022-10-23T01:07:10.529Z,13.60
2022-10-23T01:09:42.282Z,13.60
2022-10-23T01:12:14.870Z,13.70
2022-10-23T01:14:50.046Z,13.60
2022-10-23T01:17:23.095Z,13.80
2022-10-23T01:19:59.824Z,13.70
2022-10-23T01:23:07.363Z,13.70
2022-10-23T01:25:54.066Z,13.60
2022-10-23T01:28:25.930Z,13.60
2022-10-23T01:30:56.938Z,13.60
2022-10-23T01:33:27.232Z,13.60
2022-10-23T01:35:59.458Z,13.50
2022-10-23T01:38:35.176Z,13.50
2022-10-23T01:41:07.042Z,13.50
2022-10-23T01:43:41.649Z,13.50
2022-10-23T01:46:13.555Z,13.40
2022-10-23T01:48:42.760Z,13.50
2022-10-23T01:51:12.898Z,13.40
2022-10-23T01:53:43.124Z,13.40
2022-10-23T01:56:12.593Z,13.20
2022-10-23T01:58:42.208Z,13.20
2022-10-23T02:01:11.236Z,13.20
2022-10-23T02:03:41.368Z,13.50
2022-10-23T02:06:08.375Z,13.40
2022-10-23T02:08:35.305Z,13.40
2022-10-23T02:11:07.986Z,13.10
2022-10-23T02:13:42.305Z,13.30
2022-10-23T02:16:18.898Z,13.30
2022-10-23T02:18:54.941Z,13.20
2022-10-23T02:21:27.398Z,13.40
2022-10-23T02:24:00.685Z,13.30
2022-10-23T02:26:33.005Z,13.30
2022-10-23T02:29:06.789Z,13.30
2022-10-23T02:31:33.406Z,13.10
2022-10-23T02:34:00.345Z,13.40
2022-10-23T02:36:27.025Z,13.60
2022-10-23T02:38:53.574Z,13.40
2022-10-23T02:41:30.627Z,13.40
2022-10-23T02:44:10.371Z,13.40
2022-10-23T02:46:49.843Z,13.30
2022-10-23T02:49:22.972Z,13.30
2022-10-23T02:52:00.099Z,13.30
2022-10-23T02:54:36.476Z,13.30
2022-10-23T02:57:12.604Z,13.30
2022-10-23T02:59:43.680Z,13.20
2022-10-23T03:02:19.627Z,13.20
2022-10-23T03:04:47.518Z,13.20
2022-10-23T03:07:14.793Z,13.00
2022-10-23T03:09:41.482Z,13.10
2022-10-23T03:12:08.101Z,13.10
2022-10-23T03:14:34.711Z,12.90
2022-10-23T03:17:01.906Z,13.20
2022-10-23T03:19:28.430Z,13.10
2022-10-23T03:21:54.980Z,13.10
2022-10-23T03:24:21.607Z,13.00
2022-10-23T03:26:48.146Z,13.10
2022-10-23T03:29:14.859Z,12.90
2022-10-23T03:31:41.546Z,12.80
2022-10-23T03:34:10.790Z,12.90
2022-10-23T03:36:39.955Z,12.80
2022-10-23T03:39:06.675Z,12.80
2022-10-23T03:41:34.273Z,12.70
2022-10-23T03:44:01.192Z,13.00
2022-10-23T03:46:27.910Z,12.70
2022-10-23T03:48:54.756Z,12.70
2022-10-23T03:51:22.633Z,12.70
2022-10-23T03:53:49.389Z,12.70
2022-10-23T03:56:16.167Z,12.60
2022-10-23T03:58:42.911Z,12.60
2022-10-23T04:01:12.394Z,12.50
2022-10-23T04:03:39.073Z,12.50
2022-10-23T04:06:06.133Z,12.50
2022-10-23T04:08:33.356Z,12.30
2022-10-23T04:11:00.030Z,12.40
2022-10-23T04:13:26.936Z,12.40
2022-10-23T04:15:53.711Z,12.30
2022-10-23T04:18:20.344Z,12.30
2022-10-23T04:20:47.330Z,12.20
2022-10-23T04:23:14.120Z,12.50
2022-10-23T04:25:41.725Z,12.20
2022-10-23T04:28:08.374Z,12.20
2022-10-23T04:30:35.177Z,12.30
2022-10-23T04:33:01.754Z,12.10
2022-10-23T04:35:28.332Z,12.00
2022-10-23T04:37:54.975Z,12.00
2022-10-23T04:40:21.739Z,12.00
2022-10-23T04:42:49.005Z,12.10
2022-10-23T04:45:15.709Z,11.90
2022-10-23T04:47:42.315Z,11.80
2022-10-23T04:50:09.076Z,11.90
2022-10-23T04:52:35.725Z,11.90
2022-10-23T04:55:02.337Z,11.90
2022-10-23T04:57:28.912Z,11.90
2022-10-23T04:59:56.097Z,11.80
2022-10-23T05:02:23.649Z,12.00
2022-10-23T05:04:50.650Z,12.10
2022-10-23T05:09:51.291Z,11.90
2022-10-23T05:12:18.433Z,11.70
2022-10-23T05:14:45.085Z,11.70
2022-10-23T05:17:16.999Z,11.70
2022-10-23T05:19:47.907Z,11.70
2022-10-23T05:22:15.124Z,12.00
2022-10-23T05:24:41.721Z,11.60
2022-10-23T05:27:08.429Z,11.60
2022-10-23T05:29:34.960Z,11.60
2022-10-23T05:32:05.255Z,11.70
2022-10-23T05:34:35.036Z,11.50
2022-10-23T05:37:02.069Z,11.50
2022-10-23T05:39:29.018Z,11.50
2022-10-23T05:41:55.614Z,11.50
2022-10-23T05:44:22.191Z,11.50
2022-10-23T05:46:48.743Z,11.60
2022-10-23T05:49:15.402Z,11.50
2022-10-23T05:51:42.693Z,11.30
2022-10-23T05:54:09.292Z,11.50
2022-10-23T05:56:37.518Z,11.40
2022-10-23T05:59:04.655Z,11.40
2022-10-23T06:01:31.703Z,11.60
2022-10-23T06:03:58.809Z,11.70
2022-10-23T06:06:25.490Z,11.40
2022-10-23T06:08:52.735Z,11.40
2022-10-23T06:11:20.780Z,11.50
2022-10-23T06:13:47.987Z,11.50
2022-10-23T06:16:16.240Z,11.40
2022-10-23T06:18:43.302Z,11.70
2022-10-23T06:21:10.449Z,11.50
2022-10-23T06:23:38.601Z,11.50
2022-10-23T06:26:07.949Z,11.50
2022-10-23T06:28:35.073Z,11.60
2022-10-23T06:31:09.615Z,11.70
2022-10-23T06:33:36.220Z,11.60
2022-10-23T06:36:04.694Z,11.60
2022-10-23T06:38:35.899Z,11.60
2022-10-23T06:41:03.779Z,11.70
2022-10-23T06:43:31.006Z,11.70
2022-10-23T06:46:01.347Z,11.70
2022-10-23T06:48:27.915Z,11.80
2022-10-23T06:50:55.122Z,12.20
2022-10-23T06:53:24.063Z,12.10
2022-10-23T06:55:53.062Z,12.20
2022-10-23T06:58:22.016Z,12.40
2022-10-23T07:00:49.416Z,12.50
2022-10-23T07:03:16.033Z,12.50
2022-10-23T07:05:44.100Z,12.70
2022-10-23T07:08:11.246Z,12.70
2022-10-23T07:10:37.973Z,12.60
2022-10-23T07:13:04.603Z,12.70
2022-10-23T07:15:31.152Z,12.50
2022-10-23T07:17:58.363Z,12.80
2022-10-23T07:20:25.065Z,12.90
2022-10-23T07:22:52.715Z,12.90
2022-10-23T07:25:19.369Z,13.00
2022-10-23T07:27:46.217Z,12.00
2022-10-23T07:30:14.173Z,13.30
2022-10-23T07:32:41.158Z,13.50
2022-10-23T07:35:10.769Z,13.50
2022-10-23T07:37:37.448Z,13.50
2022-10-23T07:40:04.698Z,13.50
2022-10-23T07:42:31.712Z,13.60
2022-10-23T07:44:58.319Z,13.70
2022-10-23T07:47:25.068Z,13.70
2022-10-23T07:49:51.655Z,14.20
2022-10-23T07:52:18.871Z,13.80
2022-10-23T07:54:45.500Z,14.10
2022-10-23T07:57:12.103Z,14.00
2022-10-23T07:59:38.749Z,14.10
2022-10-23T08:02:10.934Z,14.30
2022-10-23T08:04:37.648Z,14.20
2022-10-23T08:07:04.201Z,14.30
2022-10-23T08:09:31.519Z,14.40
2022-10-23T08:11:58.317Z,14.40
2022-10-23T08:14:24.909Z,14.60
2022-10-23T08:16:51.696Z,14.50
2022-10-23T08:19:18.486Z,14.60
2022-10-23T08:21:45.164Z,14.50
2022-10-23T08:24:13.070Z,15.50
2022-10-23T08:26:40.616Z,14.80
2022-10-23T08:29:07.218Z,15.10
2022-10-23T08:31:33.875Z,15.40
2022-10-23T08:34:00.507Z,15.40
2022-10-23T08:36:28.826Z,15.40
2022-10-23T08:38:57.434Z,15.60
2022-10-23T08:41:27.852Z,15.50
2022-10-23T08:44:01.413Z,15.50
2022-10-23T08:46:32.204Z,15.60
2022-10-23T08:49:12.540Z,15.60
2022-10-23T08:51:43.026Z,15.60
2022-10-23T08:54:15.793Z,15.70
2022-10-23T08:56:46.873Z,15.90
2022-10-23T08:59:22.730Z,15.60
2022-10-23T09:01:55.424Z,15.80
2022-10-23T09:04:22.185Z,15.90
2022-10-23T09:06:57.443Z,16.20
2022-10-23T09:09:46.272Z,16.10
2022-10-23T09:12:16.941Z,16.00
2022-10-23T09:15:06.889Z,16.30
2022-10-23T09:17:37.226Z,16.30
2022-10-23T09:20:14.055Z,16.40
2022-10-23T09:22:41.766Z,16.50
2022-10-23T09:25:10.259Z,16.60
2022-10-23T09:27:37.125Z,16.70
2022-10-23T09:30:05.757Z,16.80
2022-10-23T09:32:34.252Z,16.90
2022-10-23T09:35:00.988Z,17.10
2022-10-23T09:37:30.405Z,17.10
2022-10-23T09:40:18.475Z,17.00
2022-10-23T09:42:54.529Z,17.10
2022-10-23T09:45:24.287Z,17.30
2022-10-23T09:47:50.948Z,17.20
2022-10-23T09:50:20.268Z,17.20
2022-10-23T09:52:52.443Z,17.30
2022-10-23T09:55:22.478Z,17.50
2022-10-23T09:57:50.094Z,17.60
2022-10-23T10:00:19.846Z,17.60
2022-10-23T10:02:57.559Z,17.70
2022-10-23T10:05:25.812Z,17.60
2022-10-23T10:08:03.881Z,17.80
2022-10-23T10:10:37.299Z,17.80
2022-10-23T10:13:11.862Z,17.80
2022-10-23T10:15:48.509Z,17.90
2022-10-23T10:18:21.235Z,17.90
2022-10-23T10:20:59.747Z,17.90
2022-10-23T10:23:33.220Z,18.00
2022-10-23T10:26:07.635Z,18.10
2022-10-23T10:28:58.933Z,18.40
2022-10-23T10:31:34.739Z,18.30
2022-10-23T10:34:10.104Z,18.30
2022-10-23T10:36:49.211Z,18.50
2022-10-23T10:39:27.277Z,18.50
2022-10-23T10:42:13.391Z,18.60
2022-10-23T10:44:57.138Z,18.50
2022-10-23T10:47:31.173Z,18.50
2022-10-23T10:50:14.742Z,18.60
2022-10-23T10:52:49.295Z,18.60
2022-10-23T10:55:21.557Z,18.70
2022-10-23T10:57:59.853Z,18.70
2022-10-23T11:00:29.915Z,18.30
2022-10-23T11:03:01.960Z,18.80
2022-10-23T11:05:33.296Z,19.10
2022-10-23T11:08:07.718Z,18.90
2022-10-23T11:10:38.522Z,18.50
2022-10-23T11:13:05.169Z,18.80
2022-10-23T11:15:39.649Z,18.80
2022-10-23T11:18:14.607Z,18.90
2022-10-23T11:20:57.259Z,19.10
2022-10-23T11:23:42.129Z,19.20
2022-10-23T11:26:19.934Z,19.30
2022-10-23T11:29:09.355Z,19.50
2022-10-23T11:31:44.376Z,19.50
2022-10-23T11:34:42.931Z,19.60
2022-10-23T11:37:15.396Z,19.70
2022-10-23T11:39:59.185Z,19.90
2022-10-23T11:42:45.522Z,20.00
2022-10-23T11:45:27.437Z,19.80
2022-10-23T11:47:57.628Z,20.00
2022-10-23T11:50:30.588Z,20.00
2022-10-23T11:53:20.290Z,20.10
2022-10-23T11:56:03.475Z,20.20
2022-10-23T11:58:42.491Z,20.50
2022-10-23T12:01:25.610Z,20.50
2022-10-23T12:03:55.336Z,20.50
2022-10-23T12:06:25.819Z,20.50
2022-10-23T12:08:56.976Z,20.40
2022-10-23T12:11:42.798Z,20.50
2022-10-23T12:14:28.776Z,20.40
2022-10-23T12:16:55.767Z,20.70
2022-10-23T12:19:24.571Z,20.70
2022-10-23T12:21:52.530Z,20.90
2022-10-23T12:24:39.206Z,21.00
2022-10-23T12:27:14.332Z,21.20
2022-10-23T12:29:56.439Z,21.20
2022-10-23T12:32:35.920Z,22.50
2022-10-23T12:35:46.960Z,23.90
2022-10-23T12:38:17.446Z,24.90
2022-10-23T12:40:46.098Z,24.80
2022-10-23T12:43:26.490Z,24.20
2022-10-23T12:45:55.034Z,23.40
2022-10-23T12:48:23.358Z,22.40
2022-10-23T12:50:51.050Z,21.80
2022-10-23T12:53:19.221Z,21.20
2022-10-23T12:55:51.079Z,20.80
2022-10-23T12:58:21.938Z,20.40
2022-10-23T13:00:53.046Z,20.20
2022-10-23T13:03:21.764Z,19.90
2022-10-23T13:05:50.189Z,19.90
2022-10-23T13:08:18.044Z,19.90
2022-10-23T13:10:45.292Z,19.90
2022-10-23T13:13:14.164Z,19.90
2022-10-23T13:15:42.954Z,19.70
2022-10-23T13:18:13.802Z,19.50
2022-10-23T13:20:44.318Z,19.40
2022-10-23T13:23:18.311Z,19.30
2022-10-23T13:25:54.401Z,19.10
2022-10-23T13:28:41.242Z,19.10
2022-10-23T13:31:25.286Z,19.20
2022-10-23T13:34:18.498Z,19.20
2022-10-23T13:36:55.204Z,19.20
2022-10-23T13:39:26.539Z,20.10
2022-10-23T13:41:54.047Z,20.50
2022-10-23T13:44:23.934Z,20.70
2022-10-23T13:46:52.063Z,21.00
2022-10-23T13:49:19.593Z,21.10
2022-10-23T13:51:49.140Z,21.00
2022-10-23T13:54:18.855Z,20.70
2022-10-23T13:56:45.488Z,20.50
2022-10-23T13:59:12.394Z,20.30
2022-10-23T14:01:40.173Z,20.10
2022-10-23T14:04:08.352Z,20.10
2022-10-23T14:06:36.740Z,19.80
2022-10-23T14:09:04.363Z,19.60
2022-10-23T14:11:31.680Z,19.50
2022-10-23T14:14:01.578Z,19.50
2022-10-23T14:16:28.455Z,19.50
2022-10-23T14:18:56.269Z,19.20
2022-10-23T14:21:24.307Z,19.30
2022-10-23T14:23:52.220Z,19.00
2022-10-23T14:26:21.195Z,18.80
2022-10-23T14:28:47.887Z,18.90
2022-10-23T14:31:16.193Z,18.60
2022-10-23T14:33:44.867Z,18.50
2022-10-23T14:36:12.657Z,18.70
2022-10-23T14:38:39.577Z,18.40
2022-10-23T14:41:11.119Z,18.40
2022-10-23T14:43:38.047Z,18.40
2022-10-23T14:46:13.617Z,18.30
2022-10-23T14:48:42.414Z,18.40
2022-10-23T14:51:18.081Z,18.40
2022-10-23T14:53:44.918Z,18.40
2022-10-23T14:56:11.495Z,18.50
2022-10-23T14:58:38.106Z,18.40
2022-10-23T15:01:05.084Z,18.30
2022-10-23T15:03:31.756Z,18.30
2022-10-23T15:05:58.422Z,18.10
2022-10-23T15:08:26.003Z,18.10
2022-10-23T15:10:52.571Z,18.00
2022-10-23T15:13:19.214Z,17.90
2022-10-23T15:15:45.899Z,17.80
2022-10-23T15:18:12.426Z,17.80
2022-10-23T15:20:41.199Z,17.70
2022-10-23T15:23:07.878Z,17.60
2022-10-23T15:25:35.080Z,17.50
2022-10-23T15:28:01.675Z,17.50
2022-10-23T15:30:28.248Z,17.40
2022-10-23T15:32:54.773Z,17.40
2022-10-23T15:35:21.382Z,17.20
2022-10-23T15:37:47.909Z,17.10
2022-10-23T15:40:14.501Z,17.20
2022-10-23T15:42:42.084Z,17.00
2022-10-23T15:45:12.562Z,16.90
2022-10-23T15:47:39.138Z,16.60
2022-10-23T15:50:06.982Z,16.80
2022-10-23T15:52:33.634Z,16.70
2022-10-23T15:55:00.174Z,16.60
2022-10-23T15:57:27.175Z,16.60
2022-10-23T15:59:54.986Z,16.40
2022-10-23T16:02:22.463Z,16.50
2022-10-23T16:04:49.162Z,16.40
2022-10-23T16:07:15.795Z,16.40
2022-10-23T16:09:42.474Z,16.30
2022-10-23T16:12:09.336Z,16.30
2022-10-23T16:14:36.135Z,16.30
2022-10-23T16:17:03.433Z,16.30
2022-10-23T16:19:30.012Z,16.00
2022-10-23T16:21:56.640Z,16.10
2022-10-23T16:24:23.264Z,16.30
2022-10-23T16:26:52.340Z,16.20
2022-10-23T16:29:19.691Z,16.20
2022-10-23T16:31:46.651Z,16.10
2022-10-23T16:34:13.827Z,16.40
2022-10-23T16:36:41.077Z,16.10
2022-10-23T16:39:09.315Z,16.10
2022-10-23T16:41:36.427Z,16.00
2022-10-23T16:44:03.135Z,16.00
2022-10-23T16:46:29.673Z,16.00
2022-10-23T16:48:56.280Z,16.00
2022-10-23T16:51:25.725Z,15.90
2022-10-23T16:53:53.226Z,16.00
2022-10-23T16:56:22.311Z,15.90
2022-10-23T16:58:49.471Z,16.00
2022-10-23T17:01:18.724Z,16.00
2022-10-23T17:03:47.530Z,16.00
2022-10-23T17:06:16.668Z,15.90
2022-10-23T17:08:44.368Z,15.90
2022-10-23T17:11:13.175Z,15.90
2022-10-23T17:13:42.137Z,15.80
2022-10-23T17:16:10.852Z,15.90
2022-10-23T17:18:41.369Z,15.80
2022-10-23T17:21:10.733Z,16.00
2022-10-23T17:23:37.394Z,15.80
2022-10-23T17:26:07.228Z,15.70
2022-10-23T17:28:39.028Z,15.80
2022-10-23T17:31:12.883Z,15.80
2022-10-23T17:33:40.441Z,15.70
2022-10-23T17:36:08.306Z,15.90
2022-10-23T17:38:36.041Z,15.90
2022-10-23T17:41:02.936Z,16.20
2022-10-23T17:43:30.256Z,15.80
2022-10-23T17:45:57.603Z,15.80
2022-10-23T17:48:24.357Z,16.10
2022-10-23T17:51:01.838Z,16.30
2022-10-23T17:53:28.893Z,16.00
2022-10-23T17:55:55.751Z,15.80
2022-10-23T17:58:22.332Z,15.80
2022-10-23T18:00:53.695Z,15.80
2022-10-23T18:03:20.254Z,15.90
2022-10-23T18:05:47.003Z,15.90
2022-10-23T18:08:13.761Z,15.90
2022-10-23T18:10:40.299Z,15.90
2022-10-23T18:13:06.888Z,15.90
2022-10-23T18:15:34.295Z,15.90
2022-10-23T18:18:06.975Z,16.10
2022-10-23T18:20:38.767Z,15.90
2022-10-23T18:23:05.526Z,15.90
2022-10-23T18:25:32.421Z,15.90
2022-10-23T18:28:01.805Z,15.80
2022-10-23T18:30:29.405Z,15.90
2022-10-23T18:32:57.421Z,15.70
2022-10-23T18:35:25.995Z,15.70
2022-10-23T18:37:52.578Z,15.70
2022-10-23T18:40:20.552Z,15.60
2022-10-23T18:42:48.759Z,15.50
2022-10-23T18:45:16.290Z,15.60
2022-10-23T18:47:43.095Z,15.60
2022-10-23T18:50:10.555Z,15.60
2022-10-23T18:52:38.153Z,15.60
2022-10-23T18:55:06.358Z,15.60
2022-10-23T18:57:33.439Z,15.10
2022-10-23T19:00:00.139Z,15.30
2022-10-23T19:02:27.394Z,15.80
2022-10-23T19:04:54.859Z,15.40
2022-10-23T19:07:21.908Z,15.20
2022-10-23T19:09:49.273Z,15.40
2022-10-23T19:12:16.605Z,15.30
2022-10-23T19:14:43.784Z,15.30
2022-10-23T19:17:17.531Z,15.50
2022-10-23T19:19:48.386Z,15.20
2022-10-23T19:22:21.630Z,15.30
2022-10-23T19:24:54.465Z,15.30
2022-10-23T19:27:21.470Z,15.70
2022-10-23T19:29:50.679Z,15.20
2022-10-23T19:32:17.575Z,15.20
2022-10-23T19:34:44.743Z,15.20
2022-10-23T19:37:11.485Z,14.70
2022-10-23T19:39:38.127Z,15.20
2022-10-23T19:42:07.916Z,15.10
2022-10-23T19:44:34.654Z,15.00
2022-10-23T19:47:02.621Z,15.10
2022-10-23T19:49:29.198Z,14.90
2022-10-23T19:51:58.657Z,15.00
2022-10-23T19:54:25.225Z,15.10
2022-10-23T19:56:52.053Z,15.00
2022-10-23T19:59:19.688Z,15.00
2022-10-23T20:01:48.839Z,15.00
2022-10-23T20:04:16.630Z,15.00
2022-10-23T20:06:43.276Z,14.80
2022-10-23T20:09:10.081Z,14.90
2022-10-23T20:11:38.970Z,14.90
2022-10-23T20:14:06.507Z,14.90
2022-10-23T20:16:35.626Z,14.70
2022-10-23T20:19:03.442Z,15.10
2022-10-23T20:21:31.565Z,15.00
2022-10-23T20:23:58.791Z,14.90
2022-10-23T20:26:26.341Z,14.70
2022-10-23T20:28:54.657Z,14.50
2022-10-23T20:31:23.040Z,14.80
2022-10-23T20:33:51.282Z,14.80
2022-10-23T20:36:26.936Z,14.80
2022-10-23T20:38:54.074Z,14.80
2022-10-23T20:41:24.254Z,14.70
2022-10-23T20:43:51.307Z,14.40
2022-10-23T20:46:18.079Z,14.70
2022-10-23T20:48:45.388Z,14.90
2022-10-23T20:51:15.346Z,14.70
2022-10-23T20:53:43.085Z,14.60
2022-10-23T20:56:12.822Z,14.60
2022-10-23T20:58:39.910Z,14.60
2022-10-23T21:01:09.140Z,17.10
2022-10-23T21:03:38.420Z,14.50
2022-10-23T21:06:07.022Z,14.50
2022-10-23T21:08:34.574Z,14.60
2022-10-23T21:11:01.293Z,14.50
2022-10-23T21:13:28.630Z,14.50
2022-10-23T21:15:55.940Z,14.50
2022-10-23T21:18:33.989Z,14.30
2022-10-23T21:21:11.085Z,14.30
2022-10-23T21:23:39.031Z,14.30
2022-10-23T21:26:07.559Z,14.20
2022-10-23T21:28:34.404Z,14.20
2022-10-23T21:31:06.164Z,14.20
2022-10-23T21:33:33.863Z,14.20
2022-10-23T21:36:13.520Z,13.70
2022-10-23T21:38:41.308Z,14.10
2022-10-23T21:41:09.452Z,14.20
2022-10-23T21:43:36.174Z,14.30
2022-10-23T21:46:04.162Z,14.40
2022-10-23T21:48:30.878Z,14.30
2022-10-23T21:50:57.736Z,14.20
2022-10-23T21:53:24.601Z,14.30
2022-10-23T21:55:53.473Z,14.40
2022-10-23T21:58:20.074Z,14.40
2022-10-23T22:00:46.946Z,14.40
2022-10-23T22:03:13.562Z,14.40
2022-10-23T22:05:40.183Z,14.50
2022-10-23T22:08:06.808Z,14.50
2022-10-23T22:10:34.712Z,14.50
2022-10-23T22:13:01.949Z,14.80
2022-10-23T22:15:28.514Z,14.60
2022-10-23T22:17:55.530Z,14.60
2022-10-23T22:20:22.121Z,14.50
2022-10-23T22:22:48.767Z,14.60
2022-10-23T22:25:15.572Z,14.20
2022-10-23T22:27:42.583Z,14.60
2022-10-23T22:30:11.997Z,14.60
2022-10-23T22:32:38.580Z,14.30
2022-10-23T22:35:06.037Z,14.80
2022-10-23T22:37:32.659Z,14.70
2022-10-23T22:40:00.385Z,14.70
2022-10-23T22:42:26.943Z,14.60
2022-10-23T22:44:53.516Z,14.70
2022-10-23T22:47:20.735Z,14.70
2022-10-23T22:49:47.344Z,14.70
2022-10-23T22:52:13.976Z,14.80
2022-10-23T22:54:40.556Z,14.60
2022-10-23T22:57:07.274Z,14.60
2022-10-23T22:59:33.858Z,14.60
2022-10-23T23:02:00.442Z,14.60
2022-10-23T23:04:43.126Z,14.20
2022-10-23T23:07:11.221Z,14.60
2022-10-23T23:09:39.301Z,14.50
2022-10-23T23:12:07.116Z,14.50
2022-10-23T23:14:33.726Z,14.50
2022-10-23T23:17:00.565Z,15.50
2022-10-23T23:19:28.080Z,14.50
2022-10-23T23:21:56.303Z,14.60
2022-10-23T23:24:23.634Z,14.30
2022-10-23T23:26:50.423Z,14.40
2022-10-23T23:29:18.752Z,14.40
2022-10-23T23:31:45.687Z,14.30
2022-10-23T23:34:12.413Z,14.30
2022-10-23T23:36:40.438Z,14.50
2022-10-23T23:39:07.228Z,14.40
2022-10-23T23:41:33.847Z,14.60
2022-10-23T23:44:00.466Z,14.30
2022-10-23T23:46:27.084Z,14.30
2022-10-23T23:48:53.660Z,14.30
2022-10-23T23:51:22.359Z,14.30
2022-10-23T23:53:50.755Z,14.40
2022-10-23T23:56:18.339Z,14.30
2022-10-23T23:58:45.233Z,14.30
